createdAt,value
2022-11-06T00:00:19.351Z,9.85
2022-11-06T00:02:46.182Z,6.55
2022-11-06T00:05:32.009Z,6.18
2022-11-06T00:07:58.696Z,6.53
2022-11-06T00:10:25.656Z,7.00
2022-11-06T00:12:52.544Z,6.28
2022-11-06T00:15:19.292Z,6.72
2022-11-06T00:17:50.009Z,7.97
2022-11-06T00:20:17.391Z,8.27
2022-11-06T00:22:44.205Z,7.47
2022-11-06T00:25:11.604Z,7.22
2022-11-06T00:27:39.617Z,7.55
2022-11-06T00:30:08.723Z,8.10
2022-11-06T00:32:35.683Z,8.50
2022-11-06T00:35:02.318Z,7.93
2022-11-06T00:37:29.005Z,8.52
2022-11-06T00:39:55.650Z,8.50
2022-11-06T00:42:22.308Z,8.43
2022-11-06T00:44:49.199Z,9.52
2022-11-06T00:47:15.974Z,7.32
2022-11-06T00:49:42.617Z,7.13
2022-11-06T00:52:09.329Z,5.70
2022-11-06T00:54:36.028Z,5.65
2022-11-06T00:57:02.682Z,5.72
2022-11-06T00:59:29.390Z,6.50
2022-11-06T01:01:56.296Z,5.85
2022-11-06T01:04:24.577Z,5.95
2022-11-06T01:06:54.445Z,5.47
2022-11-06T01:09:24.380Z,5.53
2022-11-06T01:14:42.074Z,5.78
2022-11-06T01:17:08.786Z,4.78
2022-11-06T01:19:35.595Z,4.80
2022-11-06T01:22:02.294Z,5.65
2022-11-06T01:24:29.752Z,5.90
2022-11-06T01:29:44.388Z,5.60
2022-11-06T01:32:11.579Z,5.90
2022-11-06T01:34:38.428Z,6.35
2022-11-06T01:37:05.460Z,6.97
2022-11-06T01:39:32.312Z,6.97
2022-11-06T01:41:59.074Z,5.82
2022-11-06T01:44:31.857Z,6.18
2022-11-06T01:46:59.325Z,6.03
2022-11-06T01:49:27.675Z,5.78
2022-11-06T01:51:59.041Z,6.32
2022-11-06T01:54:28.392Z,7.63
2022-11-06T01:56:57.438Z,5.63
2022-11-06T01:59:28.502Z,5.68
2022-11-06T02:01:55.368Z,5.72
2022-11-06T02:04:31.807Z,5.30
2022-11-06T02:06:59.877Z,5.38
2022-11-06T02:09:29.837Z,5.45
2022-11-06T02:12:27.370Z,5.55
2022-11-06T02:15:07.019Z,5.22
2022-11-06T02:17:56.338Z,5.70
2022-11-06T02:20:32.211Z,5.47
2022-11-06T02:23:02.104Z,5.07
2022-11-06T02:26:02.332Z,5.88
2022-11-06T02:28:48.478Z,5.82
2022-11-06T02:31:21.525Z,5.15
2022-11-06T02:33:55.443Z,5.53
2022-11-06T02:36:30.663Z,5.50
2022-11-06T02:39:01.827Z,5.70
2022-11-06T02:41:33.768Z,6.15
2022-11-06T02:44:03.466Z,5.40
2022-11-06T02:46:40.020Z,4.47
2022-11-06T02:49:17.229Z,4.75
2022-11-06T02:51:50.517Z,5.05
2022-11-06T02:54:21.933Z,5.20
2022-11-06T02:56:52.242Z,5.75
2022-11-06T02:59:32.074Z,5.80
2022-11-06T03:02:03.718Z,5.47
2022-11-06T03:04:45.375Z,6.43
2022-11-06T03:07:29.125Z,6.88
2022-11-06T03:09:57.747Z,6.47
2022-11-06T03:12:30.514Z,5.03
2022-11-06T03:15:32.447Z,5.57
2022-11-06T03:18:09.234Z,5.55
2022-11-06T03:20:42.088Z,5.13
2022-11-06T03:23:16.519Z,5.82
2022-11-06T03:25:51.152Z,5.57
2022-11-06T03:28:37.973Z,6.10
2022-11-06T03:31:13.765Z,6.47
2022-11-06T03:33:49.377Z,5.90
2022-11-06T03:36:18.957Z,5.30
2022-11-06T03:38:59.248Z,6.93
2022-11-06T03:41:33.835Z,6.38
2022-11-06T03:44:04.731Z,6.45
2022-11-06T03:46:33.315Z,6.72
2022-11-06T03:49:04.945Z,6.95
2022-11-06T03:51:40.421Z,7.97
2022-11-06T03:54:15.791Z,5.50
2022-11-06T03:56:53.301Z,6.20
2022-11-06T03:59:25.286Z,5.97
2022-11-06T04:01:55.574Z,6.53
2022-11-06T04:04:27.964Z,6.82
2022-11-06T04:07:02.310Z,7.10
2022-11-06T04:09:52.488Z,6.55
2022-11-06T04:12:41.285Z,7.10
2022-11-06T04:15:12.730Z,5.70
2022-11-06T04:17:40.970Z,5.75
2022-11-06T04:20:12.221Z,5.40
2022-11-06T04:22:50.910Z,5.43
2022-11-06T04:25:56.967Z,5.20
2022-11-06T04:28:43.924Z,5.15
2022-11-06T04:31:30.084Z,6.15
2022-11-06T04:34:18.628Z,6.18
2022-11-06T04:36:56.193Z,7.18
2022-11-06T04:39:31.759Z,7.30
2022-11-06T04:42:08.793Z,6.80
2022-11-06T04:44:41.102Z,7.65
2022-11-06T04:47:11.910Z,6.60
2022-11-06T04:49:42.092Z,7.82
2022-11-06T04:52:15.069Z,6.85
2022-11-06T04:54:42.051Z,6.78
2022-11-06T04:57:08.837Z,6.88
2022-11-06T04:59:37.333Z,5.82
2022-11-06T05:02:05.888Z,5.78
2022-11-06T05:04:33.733Z,5.75
2022-11-06T05:07:00.592Z,5.82
2022-11-06T05:09:27.250Z,6.45
2022-11-06T05:11:54.259Z,5.72
2022-11-06T05:14:20.945Z,6.10
2022-11-06T05:16:47.678Z,6.43
2022-11-06T05:19:14.465Z,5.05
2022-11-06T05:21:59.655Z,5.65
2022-11-06T05:24:26.319Z,6.80
2022-11-06T05:26:58.900Z,4.95
2022-11-06T05:29:26.556Z,4.45
2022-11-06T05:31:53.475Z,4.38
2022-11-06T05:34:21.541Z,4.00
2022-11-06T05:36:48.210Z,5.30
2022-11-06T05:39:15.165Z,3.95
2022-11-06T05:41:41.895Z,5.40
2022-11-06T05:44:08.658Z,4.45
2022-11-06T05:46:48.163Z,5.55
2022-11-06T05:49:16.660Z,5.53
2022-11-06T05:51:43.323Z,5.20
2022-11-06T05:54:10.050Z,4.90
2022-11-06T05:56:36.752Z,5.10
2022-11-06T05:59:03.766Z,5.32
2022-11-06T06:01:30.537Z,5.43
2022-11-06T06:03:57.312Z,4.22
2022-11-06T06:06:24.078Z,3.72
2022-11-06T06:08:50.781Z,5.20
2022-11-06T06:11:17.487Z,4.53
2022-11-06T06:13:44.386Z,4.53
2022-11-06T06:16:11.123Z,5.68
2022-11-06T06:18:37.853Z,3.78
2022-11-06T06:21:04.799Z,3.17
2022-11-06T06:23:32.435Z,3.45
2022-11-06T06:25:59.127Z,3.78
2022-11-06T06:28:25.900Z,3.85
2022-11-06T06:30:57.159Z,3.38
2022-11-06T06:33:26.882Z,3.13
2022-11-06T06:35:53.560Z,3.28
2022-11-06T06:38:20.289Z,3.60
2022-11-06T06:40:47.098Z,3.53
2022-11-06T06:43:13.839Z,3.55
2022-11-06T06:45:40.546Z,3.65
2022-11-06T06:48:07.697Z,3.17
2022-11-06T06:50:34.347Z,3.28
2022-11-06T06:53:01.214Z,4.25
2022-11-06T06:55:27.971Z,4.75
2022-11-06T06:57:59.500Z,3.75
2022-11-06T07:00:27.849Z,4.17
2022-11-06T07:02:54.978Z,3.30
2022-11-06T07:05:21.703Z,4.22
2022-11-06T07:07:48.563Z,3.88
2022-11-06T07:10:15.443Z,4.03
2022-11-06T07:12:42.160Z,6.00
2022-11-06T07:15:09.603Z,5.63
2022-11-06T07:17:36.312Z,4.43
2022-11-06T07:20:03.461Z,4.50
2022-11-06T07:22:36.709Z,5.28
2022-11-06T07:25:05.935Z,3.90
2022-11-06T07:27:33.780Z,3.83
2022-11-06T07:30:00.743Z,3.80
2022-11-06T07:32:28.140Z,4.20
2022-11-06T07:34:55.012Z,3.97
2022-11-06T07:37:21.907Z,4.13
2022-11-06T07:39:48.555Z,3.85
2022-11-06T07:42:15.247Z,4.25
2022-11-06T07:44:55.924Z,4.47
2022-11-06T07:47:23.030Z,4.35
2022-11-06T07:49:51.067Z,4.32
2022-11-06T07:52:18.095Z,4.00
2022-11-06T07:54:44.800Z,4.47
2022-11-06T07:57:11.477Z,5.70
2022-11-06T07:59:38.176Z,5.43
2022-11-06T08:02:05.509Z,4.53
2022-11-06T08:04:32.323Z,4.15
2022-11-06T08:06:59.014Z,3.67
2022-11-06T08:09:25.769Z,3.22
2022-11-06T08:11:52.446Z,2.90
2022-11-06T08:14:19.119Z,3.90
2022-11-06T08:16:45.773Z,4.07
2022-11-06T08:19:12.488Z,3.42
2022-11-06T08:21:39.368Z,3.40
2022-11-06T08:24:06.882Z,4.60
2022-11-06T08:26:33.748Z,5.40
2022-11-06T08:29:00.675Z,4.70
2022-11-06T08:31:27.416Z,4.57
2022-11-06T08:33:54.505Z,5.93
2022-11-06T08:36:21.160Z,5.75
2022-11-06T08:38:48.676Z,5.07
2022-11-06T08:41:16.397Z,6.15
2022-11-06T08:43:43.049Z,4.47
2022-11-06T08:46:10.862Z,5.10
2022-11-06T08:48:37.552Z,4.63
2022-11-06T08:51:05.440Z,6.18
2022-11-06T08:53:32.253Z,6.40
2022-11-06T08:55:58.976Z,3.75
2022-11-06T08:58:25.748Z,6.85
2022-11-06T09:00:52.576Z,5.82
2022-11-06T09:03:19.427Z,6.13
2022-11-06T09:05:46.552Z,5.63
2022-11-06T09:08:13.842Z,5.60
2022-11-06T09:10:42.468Z,6.22
2022-11-06T09:13:10.247Z,7.32
2022-11-06T09:15:37.979Z,6.50
2022-11-06T09:18:04.905Z,5.80
2022-11-06T09:20:31.661Z,4.10
2022-11-06T09:23:04.475Z,5.22
2022-11-06T09:25:31.443Z,7.00
2022-11-06T09:28:00.006Z,6.95
2022-11-06T09:30:28.963Z,6.20
2022-11-06T09:32:58.042Z,5.15
2022-11-06T09:35:26.590Z,6.53
2022-11-06T09:37:53.379Z,6.25
2022-11-06T09:40:26.651Z,6.97
2022-11-06T09:42:58.422Z,6.38
2022-11-06T09:45:29.709Z,7.13
2022-11-06T09:48:18.799Z,5.65
2022-11-06T09:51:20.022Z,5.70
2022-11-06T09:54:00.318Z,6.30
2022-11-06T09:56:32.153Z,8.20
2022-11-06T09:59:01.465Z,7.00
2022-11-06T10:01:40.403Z,7.07
2022-11-06T10:04:20.644Z,6.25
2022-11-06T10:06:47.454Z,7.97
2022-11-06T10:09:14.219Z,7.22
2022-11-06T10:11:52.947Z,7.93
2022-11-06T10:14:28.097Z,8.18
2022-11-06T10:17:11.255Z,5.75
2022-11-06T10:19:55.414Z,6.88
2022-11-06T10:22:41.748Z,7.50
2022-11-06T10:25:22.300Z,8.80
2022-11-06T10:28:04.588Z,6.97
2022-11-06T10:31:01.724Z,8.30
2022-11-06T10:33:38.606Z,8.43
2022-11-06T10:36:15.519Z,8.32
2022-11-06T10:38:47.339Z,6.85
2022-11-06T10:41:21.600Z,7.90
2022-11-06T10:44:13.973Z,7.47
2022-11-06T10:46:46.673Z,6.75
2022-11-06T10:49:32.085Z,6.43
2022-11-06T10:52:23.612Z,7.25
2022-11-06T10:55:09.398Z,6.72
2022-11-06T10:57:39.015Z,7.88
2022-11-06T11:00:11.126Z,7.80
2022-11-06T11:02:51.841Z,6.97
2022-11-06T11:05:21.779Z,7.90
2022-11-06T11:07:50.037Z,6.63
2022-11-06T11:10:34.354Z,7.90
2022-11-06T11:13:08.143Z,6.95
2022-11-06T11:15:45.878Z,7.15
2022-11-06T11:18:12.773Z,7.97
2022-11-06T11:20:50.233Z,7.05
2022-11-06T11:23:23.343Z,7.20
2022-11-06T11:25:56.237Z,7.28
2022-11-06T11:28:33.447Z,6.97
2022-11-06T11:31:10.161Z,6.35
2022-11-06T11:33:39.223Z,6.38
2022-11-06T11:36:08.954Z,6.68
2022-11-06T11:38:38.546Z,8.15
2022-11-06T11:41:07.245Z,6.32
2022-11-06T11:43:34.332Z,6.15
2022-11-06T11:46:10.003Z,6.38
2022-11-06T11:48:47.731Z,6.18
2022-11-06T11:51:29.944Z,5.93
2022-11-06T11:54:21.418Z,5.38
2022-11-06T11:57:10.297Z,5.78
2022-11-06T11:59:44.662Z,8.02
2022-11-06T12:02:14.382Z,7.00
2022-11-06T12:04:43.728Z,5.60
2022-11-06T12:07:53.683Z,6.45
2022-11-06T12:10:40.858Z,6.15
2022-11-06T12:13:21.385Z,5.70
2022-11-06T12:16:00.451Z,5.97
2022-11-06T12:18:35.274Z,6.47
2022-11-06T12:21:08.458Z,6.75
2022-11-06T12:23:54.021Z,6.75
2022-11-06T12:26:46.468Z,5.80
2022-11-06T12:29:17.582Z,5.80
2022-11-06T12:31:59.363Z,6.85
2022-11-06T12:34:37.682Z,6.83
2022-11-06T12:37:11.013Z,6.53
2022-11-06T12:39:42.469Z,6.40
2022-11-06T12:42:12.774Z,7.17
2022-11-06T12:44:39.628Z,8.05
2022-11-06T12:47:33.342Z,6.80
2022-11-06T12:50:45.145Z,7.20
2022-11-06T12:53:20.617Z,6.93
2022-11-06T12:55:56.564Z,7.15
2022-11-06T12:58:45.008Z,6.82
2022-11-06T13:01:21.440Z,6.50
2022-11-06T13:04:25.587Z,7.00
2022-11-06T13:07:01.053Z,6.32
2022-11-06T13:09:47.632Z,6.68
2022-11-06T13:12:37.431Z,7.03
2022-11-06T13:15:16.251Z,7.20
2022-11-06T13:17:55.906Z,7.85
2022-11-06T13:20:32.781Z,6.72
2022-11-06T13:23:19.744Z,7.00
2022-11-06T13:26:08.798Z,7.25
2022-11-06T13:28:46.947Z,7.40
2022-11-06T13:31:17.749Z,7.30
2022-11-06T13:33:51.336Z,7.25
2022-11-06T13:36:20.202Z,7.85
2022-11-06T13:38:52.648Z,9.20
2022-11-06T13:43:54.622Z,7.25
2022-11-06T13:46:43.111Z,8.73
2022-11-06T13:49:16.804Z,7.78
2022-11-06T13:51:49.561Z,9.77
2022-11-06T13:54:31.432Z,9.27
2022-11-06T13:57:22.518Z,9.75
2022-11-06T14:00:31.105Z,8.52
2022-11-06T14:03:09.740Z,7.20
2022-11-06T14:06:02.780Z,9.10
2022-11-06T14:08:46.150Z,8.18
2022-11-06T14:11:19.311Z,9.85
2022-11-06T14:14:04.466Z,7.70
2022-11-06T14:16:37.514Z,6.57
2022-11-06T14:19:06.744Z,8.43
2022-11-06T14:21:36.386Z,8.38
2022-11-06T14:24:19.752Z,8.48
2022-11-06T14:26:49.102Z,8.73
2022-11-06T14:29:27.998Z,7.95
2022-11-06T14:32:02.328Z,7.43
2022-11-06T14:34:31.407Z,7.85
2022-11-06T14:36:58.202Z,7.47
2022-11-06T14:39:55.991Z,9.00
2022-11-06T14:42:36.559Z,7.15
2022-11-06T14:45:06.499Z,7.72
2022-11-06T14:47:56.896Z,8.38
2022-11-06T14:50:25.670Z,7.88
2022-11-06T14:53:00.578Z,7.82
2022-11-06T14:55:57.347Z,7.93
2022-11-06T14:58:27.258Z,6.95
2022-11-06T15:01:03.345Z,6.55
2022-11-06T15:03:54.158Z,7.68
2022-11-06T15:06:33.198Z,7.15
2022-11-06T15:09:00.126Z,7.60
2022-11-06T15:11:29.928Z,7.45
2022-11-06T15:14:04.578Z,6.80
2022-11-06T15:16:43.431Z,6.88
2022-11-06T15:19:21.636Z,7.78
2022-11-06T15:21:56.335Z,7.35
2022-11-06T15:24:29.151Z,7.97
2022-11-06T15:26:59.554Z,7.50
2022-11-06T15:29:29.335Z,8.73
2022-11-06T15:32:03.005Z,7.97
2022-11-06T15:34:36.749Z,7.43
2022-11-06T15:37:17.765Z,9.70
2022-11-06T15:39:47.550Z,9.75
2022-11-06T15:42:18.196Z,10.02
2022-11-06T15:44:46.581Z,8.70
2022-11-06T15:47:21.012Z,8.40
2022-11-06T15:49:47.751Z,9.18
2022-11-06T15:52:18.646Z,12.95
2022-11-06T15:54:45.552Z,15.15
2022-11-06T15:57:22.023Z,15.45
2022-11-06T15:59:48.973Z,17.27
2022-11-06T16:02:20.510Z,13.55
2022-11-06T16:04:49.183Z,11.50
2022-11-06T16:07:18.061Z,9.70
2022-11-06T16:09:46.327Z,10.95
2022-11-06T16:12:15.924Z,9.63
2022-11-06T16:14:46.824Z,9.80
2022-11-06T16:17:21.362Z,10.18
2022-11-06T16:19:49.678Z,9.77
2022-11-06T16:22:29.610Z,8.85
2022-11-06T16:25:02.896Z,9.68
2022-11-06T16:27:35.527Z,9.20
2022-11-06T16:30:06.572Z,10.90
2022-11-06T16:32:39.778Z,8.65
2022-11-06T16:35:32.857Z,10.90
2022-11-06T16:38:42.025Z,9.02
2022-11-06T16:41:11.275Z,8.07
2022-11-06T16:43:38.477Z,8.50
2022-11-06T16:46:08.073Z,8.32
2022-11-06T16:48:42.344Z,9.60
2022-11-06T16:51:10.774Z,9.18
2022-11-06T16:53:51.585Z,9.05
2022-11-06T16:56:24.599Z,9.57
2022-11-06T16:59:02.643Z,8.73
2022-11-06T17:01:37.726Z,10.60
2022-11-06T17:04:04.830Z,10.02
2022-11-06T17:06:34.432Z,9.75
2022-11-06T17:09:26.907Z,8.93
2022-11-06T17:11:54.775Z,8.70
2022-11-06T17:14:22.040Z,9.00
2022-11-06T17:16:56.249Z,9.52
2022-11-06T17:19:25.026Z,9.98
2022-11-06T17:21:52.157Z,9.15
2022-11-06T17:27:06.531Z,10.00
2022-11-06T17:29:36.103Z,9.18
2022-11-06T17:32:03.382Z,7.53
2022-11-06T17:34:30.084Z,7.85
2022-11-06T17:36:56.875Z,8.63
2022-11-06T17:39:23.628Z,7.70
2022-11-06T17:41:50.422Z,7.50
2022-11-06T17:44:17.462Z,6.55
2022-11-06T17:46:46.594Z,7.38
2022-11-06T17:49:18.144Z,8.82
2022-11-06T17:52:01.146Z,9.95
2022-11-06T17:54:33.379Z,10.75
2022-11-06T17:57:02.685Z,7.65
2022-11-06T17:59:29.433Z,7.38
2022-11-06T18:01:57.511Z,6.60
2022-11-06T18:04:26.280Z,6.22
2022-11-06T18:06:54.192Z,5.93
2022-11-06T18:09:22.438Z,6.18
2022-11-06T18:11:54.369Z,5.78
2022-11-06T18:14:22.257Z,6.43
2022-11-06T18:16:49.445Z,6.47
2022-11-06T18:19:18.397Z,6.50
2022-11-06T18:21:45.329Z,8.00
2022-11-06T18:24:12.718Z,7.53
2022-11-06T18:26:39.595Z,8.27
2022-11-06T18:29:08.244Z,7.97
2022-11-06T18:31:35.540Z,7.88
2022-11-06T18:34:02.859Z,8.35
2022-11-06T18:36:29.562Z,8.32
2022-11-06T18:38:56.255Z,9.48
2022-11-06T18:41:23.167Z,8.75
2022-11-06T18:43:49.959Z,8.77
2022-11-06T18:46:18.867Z,14.02
2022-11-06T18:48:45.981Z,10.40
2022-11-06T18:51:23.683Z,10.45
2022-11-06T18:54:02.089Z,9.18
2022-11-06T18:56:28.908Z,8.82
2022-11-06T18:58:55.724Z,9.43
2022-11-06T19:01:26.606Z,8.63
2022-11-06T19:03:54.118Z,8.52
2022-11-06T19:06:21.911Z,9.05
2022-11-06T19:08:49.129Z,9.82
2022-11-06T19:11:18.219Z,9.00
2022-11-06T19:13:48.239Z,8.18
2022-11-06T19:16:16.756Z,8.30
2022-11-06T19:18:43.520Z,7.53
2022-11-06T19:21:11.470Z,7.85
2022-11-06T19:23:40.485Z,8.55
2022-11-06T19:26:33.007Z,7.80
2022-11-06T19:28:56.386Z,8.15
2022-11-06T19:31:28.797Z,8.82
2022-11-06T19:33:56.766Z,7.70
2022-11-06T19:36:25.329Z,7.90
2022-11-06T19:38:52.687Z,8.07
2022-11-06T19:41:19.687Z,7.15
2022-11-06T19:43:46.412Z,6.72
2022-11-06T19:46:13.160Z,7.07
2022-11-06T19:48:41.175Z,6.80
2022-11-06T19:51:15.299Z,6.38
2022-11-06T19:53:42.694Z,7.05
2022-11-06T19:56:12.714Z,6.28
2022-11-06T19:58:39.402Z,6.50
2022-11-06T20:01:13.176Z,6.30
2022-11-06T20:03:40.654Z,6.32
2022-11-06T20:06:08.355Z,6.72
2022-11-06T20:08:37.050Z,6.25
2022-11-06T20:11:09.491Z,6.20
2022-11-06T20:16:07.938Z,5.60
2022-11-06T20:18:35.984Z,5.85
2022-11-06T20:21:05.734Z,6.03
2022-11-06T20:23:33.858Z,5.63
2022-11-06T20:26:00.668Z,6.65
2022-11-06T20:28:28.018Z,6.82
2022-11-06T20:30:54.899Z,5.45
2022-11-06T20:33:21.947Z,4.68
2022-11-06T20:35:48.854Z,4.97
2022-11-06T20:38:16.267Z,4.55
2022-11-06T20:40:43.278Z,4.95
2022-11-06T20:43:10.167Z,4.85
2022-11-06T20:45:37.540Z,5.00
2022-11-06T20:48:05.642Z,5.05
2022-11-06T20:50:32.617Z,4.32
2022-11-06T20:52:59.739Z,4.72
2022-11-06T20:55:26.476Z,4.95
2022-11-06T20:57:53.198Z,3.80
2022-11-06T21:00:19.969Z,4.43
2022-11-06T21:02:47.074Z,4.45
2022-11-06T21:05:15.127Z,4.63
2022-11-06T21:07:42.027Z,4.13
2022-11-06T21:10:11.016Z,4.32
2022-11-06T21:12:38.216Z,4.40
2022-11-06T21:15:05.485Z,4.10
2022-11-06T21:17:32.261Z,4.28
2022-11-06T21:19:58.941Z,4.43
2022-11-06T21:22:25.744Z,4.00
2022-11-06T21:24:52.411Z,3.95
2022-11-06T21:27:19.075Z,4.47
2022-11-06T21:29:45.825Z,4.10
2022-11-06T21:32:41.481Z,4.35
2022-11-06T21:35:08.524Z,4.10
2022-11-06T21:37:35.230Z,4.13
2022-11-06T21:40:02.009Z,3.90
2022-11-06T21:42:28.890Z,4.30
2022-11-06T21:44:55.647Z,4.13
2022-11-06T21:47:22.379Z,3.83
2022-11-06T21:49:54.064Z,3.85
2022-11-06T21:52:40.651Z,4.20
2022-11-06T21:55:26.881Z,4.60
2022-11-06T21:57:53.709Z,3.85
2022-11-06T22:00:20.540Z,4.20
2022-11-06T22:02:47.492Z,3.50
2022-11-06T22:05:14.340Z,4.00
2022-11-06T22:07:41.134Z,3.60
2022-11-06T22:10:08.279Z,4.20
2022-11-06T22:12:35.399Z,4.28
2022-11-06T22:15:02.210Z,4.00
2022-11-06T22:17:30.352Z,3.60
2022-11-06T22:19:58.501Z,3.83
2022-11-06T22:22:25.770Z,4.03
2022-11-06T22:24:52.418Z,3.80
2022-11-06T22:27:19.164Z,4.10
2022-11-06T22:29:45.846Z,3.50
2022-11-06T22:32:12.610Z,3.85
2022-11-06T22:34:39.332Z,4.00
2022-11-06T22:37:06.104Z,3.72
2022-11-06T22:39:33.120Z,3.45
2022-11-06T22:42:00.068Z,3.83
2022-11-06T22:44:27.210Z,3.95
2022-11-06T22:46:54.413Z,3.55
2022-11-06T22:49:21.462Z,3.58
2022-11-06T22:51:48.548Z,4.10
2022-11-06T22:54:17.214Z,3.97
2022-11-06T22:56:44.056Z,3.95
2022-11-06T22:59:13.610Z,4.57
2022-11-06T23:01:42.716Z,4.38
2022-11-06T23:04:17.257Z,4.55
2022-11-06T23:06:45.512Z,4.40
2022-11-06T23:09:13.641Z,4.10
2022-11-06T23:11:40.947Z,4.43
2022-11-06T23:14:09.349Z,4.60
2022-11-06T23:16:56.937Z,4.63
2022-11-06T23:19:24.312Z,4.50
2022-11-06T23:21:52.497Z,5.40
2022-11-06T23:24:19.701Z,5.40
2022-11-06T23:26:47.537Z,4.93
2022-11-06T23:29:14.566Z,5.72
2022-11-06T23:31:41.764Z,5.57
2022-11-06T23:34:08.957Z,5.18
2022-11-06T23:36:35.920Z,5.15
2022-11-06T23:39:03.471Z,5.55
2022-11-06T23:41:46.361Z,5.15
2022-11-06T23:44:33.751Z,4.70
2022-11-06T23:47:01.423Z,4.80
2022-11-06T23:49:28.623Z,4.65
2022-11-06T23:51:57.865Z,4.50
2022-11-06T23:54:26.196Z,5.10
2022-11-06T23:56:53.286Z,4.55
2022-11-06T23:59:20.126Z,4.32
